Airfield :







YOU CAN JOIN US ON...

 
LOGIN :

Register | Disclaimer

   EN    FR    IT 

 









Legend :    VFR   Marginal VFR   IFR   Intensive IFR   Very Intensive IFR
Visi :
Ceiling :
>= 8 km
>= 3000ft
5 to 8 km
1000 to 3000 ft
1500m to 5 km
500 to 1000 ft
800 to 1500m
200 to 500 ft
< 800m
< 200 ft
Symbols :   Thunderstorms  Fog  Heavy snow  Heavy precipitations  Wind > 20 kt







- Airport Elevation : 241 ft
- IATA code : CEF


KCEF - Westover ARB/Metropolitan

CURRENT METAR :
  • 210756Z AUTO 14003KT 10SM CLR 22/20 A2974 RMK AO2 SLP075 T02240199

EXPIRED METARs :
  • 210656Z AUTO 00000KT 10SM FEW150 24/20 A2974 RMK AO2 SLP075 T02410198
  • 210556Z AUTO 19003KT 10SM SCT150 25/20 A2975 RMK AO2 SLP078 60000 T02470195 10316 20239 55008

TAF TAF KCEF
Valid from the 21 at 02:00 until the 22 at 08:00 UTC


210200Z 2102/2208 VRB06KT 9999 FEW050 BKN120 QNH2969INS
TEMPO 2102/2106 9000 -SHRA BKN050 OVC120
BECMG 2114/2115 27010G15KT 9999 FEW045 BKN200 QNH2968INS
TEMPO 2116/2122 28015G25KT 520004
BECMG 2122/2123 29009KT 9999 FEW100 QNH2976INS
BECMG 2201/2202 35006KT 9999 FEW100 QNH2983INS TX36/2120Z TN26/2110Z LAST NO AMDS AFT 2103 NEXT 2110
KZBW FIR / North America



MET'MAP, your aeronautical weather chart ! - Copyright ORBIFLY December 2007 - Disclaimer

ORBIFLY MET'MAP TEAM :

Programming & Development : Alexandra Zaïnal
Concept & Development : Baudouin d'Aumeries
Co-Development & Prog : Marc-Olivier Méhu
Technical & hardware support : Manuel Goepfert

Contact : metmap@orbifly.com




SOURCES & CREDITS :

   NOAA